CheckWX is a tool to help pilots better visualize weather data.  It is not intended as a substitute for an official pre-flight weather briefing.

07:14:06 UTC

KMQS METAR
Chester County G O Carlson Airport
Coatesville, Pennsylvania, USA
Current

19 mins ago

KMQS 050655Z AUTO 23004KT 10SM OVC035 10/07 A3005 RMK AO2
Observed
Apr-5 @ 06:55 UTC
Wind
  • 230° at 4 KTS
Visibility
Flight Rules
VFR
Cloud Levels
  • Overcast at 3,500' AGL
Temperature
10°C / 50°F
Dewpoint
C / 45°F
Humidity
82%
Altimeter
30.05" Hg
Pressure
1017.62 hPa
Previous

39 mins ago

KMQS 050635Z AUTO 27004KT 10SM OVC035 10/07 A3005 RMK AO2
Observed
Apr-5 @ 06:35 UTC
Wind
  • 270° at 4 KTS
Visibility
Flight Rules
VFR
Cloud Levels
  • Overcast at 3,500' AGL
Temperature
10°C / 50°F
Dewpoint
C / 45°F
Humidity
82%
Altimeter
30.05" Hg
Pressure
1017.62 hPa
Previous

59 mins ago

KMQS 050615Z AUTO 25004KT 10SM OVC035 10/07 A3005 RMK AO2
Observed
Apr-5 @ 06:15 UTC
Wind
  • 250° at 4 KTS
Visibility
Flight Rules
VFR
Cloud Levels
  • Overcast at 3,500' AGL
Temperature
10°C / 50°F
Dewpoint
C / 45°F
Humidity
82%
Altimeter
30.05" Hg
Pressure
1017.62 hPa